createdAt,value
2023-05-04T00:00:11.734Z,17.45
2023-05-04T00:02:47.245Z,14.40
2023-05-04T00:05:19.725Z,17.80
2023-05-04T00:07:52.288Z,16.45
2023-05-04T00:10:24.618Z,25.20
2023-05-04T00:12:57.215Z,13.82
2023-05-04T00:15:30.804Z,21.80
2023-05-04T00:18:03.163Z,18.17
2023-05-04T00:20:35.409Z,20.63
2023-05-04T00:23:07.627Z,18.20
2023-05-04T00:25:39.841Z,17.50
2023-05-04T00:28:12.098Z,19.45
2023-05-04T00:30:44.619Z,17.17
2023-05-04T00:33:16.969Z,15.55
2023-05-04T00:35:49.157Z,15.57
2023-05-04T00:38:21.681Z,18.35
2023-05-04T00:40:54.046Z,19.73
2023-05-04T00:43:26.988Z,17.75
2023-05-04T00:45:59.794Z,16.65
2023-05-04T00:48:35.911Z,14.35
2023-05-04T00:51:09.601Z,18.77
2023-05-04T00:53:42.945Z,19.45
2023-05-04T00:56:19.128Z,22.00
2023-05-04T00:58:54.746Z,22.85
2023-05-04T01:01:27.110Z,18.15
2023-05-04T01:03:59.821Z,21.85
2023-05-04T01:07:15.199Z,17.27
2023-05-04T01:10:05.665Z,20.02
2023-05-04T01:13:06.616Z,14.35
2023-05-04T01:15:41.514Z,17.15
2023-05-04T01:18:14.031Z,17.70
2023-05-04T01:20:46.492Z,23.27
2023-05-04T01:23:18.745Z,26.92
2023-05-04T01:26:08.540Z,15.70
2023-05-04T01:29:16.815Z,22.52
2023-05-04T01:31:50.474Z,17.42
2023-05-04T01:34:23.463Z,22.73
2023-05-04T01:36:56.219Z,15.43
2023-05-04T01:39:30.263Z,14.35
2023-05-04T01:42:02.750Z,16.30
2023-05-04T01:44:35.298Z,21.88
2023-05-04T01:47:07.818Z,19.35
2023-05-04T01:49:40.850Z,27.70
2023-05-04T01:52:13.384Z,23.38
2023-05-04T01:54:45.623Z,18.60
2023-05-04T01:57:17.997Z,19.70
2023-05-04T01:59:50.458Z,24.65
2023-05-04T02:02:23.603Z,20.42
2023-05-04T02:04:55.985Z,19.35
2023-05-04T02:07:28.424Z,19.67
2023-05-04T02:10:00.993Z,17.52
2023-05-04T02:12:33.461Z,18.67
2023-05-04T02:15:06.546Z,22.35
2023-05-04T02:17:39.023Z,25.13
2023-05-04T02:20:13.283Z,16.25
2023-05-04T02:22:45.928Z,18.85
2023-05-04T02:25:18.344Z,17.23
2023-05-04T02:27:50.658Z,23.30
2023-05-04T02:30:23.091Z,17.02
2023-05-04T02:32:55.961Z,22.30
2023-05-04T02:35:30.540Z,20.35
2023-05-04T02:38:03.733Z,16.90
2023-05-04T02:40:36.035Z,21.48
2023-05-04T02:43:08.546Z,18.92
2023-05-04T02:45:41.034Z,16.90
2023-05-04T02:48:16.663Z,18.88
2023-05-04T02:50:48.935Z,20.48
2023-05-04T02:53:21.289Z,15.40
2023-05-04T02:55:53.639Z,13.85
2023-05-04T02:58:25.901Z,13.65
2023-05-04T03:00:59.371Z,18.40
2023-05-04T03:03:34.842Z,16.75
2023-05-04T03:06:07.457Z,25.25
2023-05-04T03:08:42.774Z,12.13
2023-05-04T03:11:15.170Z,20.13
2023-05-04T03:13:47.510Z,18.98
2023-05-04T03:16:19.834Z,18.25
2023-05-04T03:18:52.100Z,19.85
2023-05-04T03:21:24.725Z,18.17
2023-05-04T03:23:57.301Z,18.08
2023-05-04T03:26:30.099Z,24.05
2023-05-04T03:29:02.516Z,13.32
2023-05-04T03:31:34.977Z,15.95
2023-05-04T03:34:07.498Z,17.90
2023-05-04T03:36:39.839Z,16.15
2023-05-04T03:39:12.820Z,17.80
2023-05-04T03:41:45.185Z,14.93
2023-05-04T03:44:17.558Z,18.02
2023-05-04T03:46:49.880Z,19.85
2023-05-04T03:49:22.478Z,27.13
2023-05-04T03:51:54.882Z,17.60
2023-05-04T03:54:27.160Z,18.10
2023-05-04T03:57:04.636Z,14.85
2023-05-04T03:59:37.043Z,16.98
2023-05-04T04:02:11.628Z,18.63
2023-05-04T04:04:43.890Z,16.48
2023-05-04T04:07:16.186Z,19.25
2023-05-04T04:09:48.622Z,16.30
2023-05-04T04:12:21.265Z,18.35
2023-05-04T04:14:53.526Z,17.35
2023-05-04T04:17:25.939Z,18.20
2023-05-04T04:19:58.332Z,16.42
2023-05-04T04:22:30.853Z,18.08
2023-05-04T04:25:03.729Z,20.55
2023-05-04T04:27:36.905Z,15.25
2023-05-04T04:30:10.277Z,17.58
2023-05-04T04:32:42.731Z,14.98
2023-05-04T04:35:15.305Z,19.98
2023-05-04T04:37:47.861Z,16.50
2023-05-04T04:40:20.203Z,14.73
2023-05-04T04:42:52.788Z,14.77
2023-05-04T04:45:25.065Z,14.68
2023-05-04T04:47:58.061Z,12.60
2023-05-04T04:50:30.663Z,17.60
2023-05-04T04:53:02.895Z,16.65
2023-05-04T04:55:35.133Z,12.80
2023-05-04T04:58:09.130Z,10.25
2023-05-04T05:00:41.328Z,11.52
2023-05-04T05:03:13.797Z,13.73
2023-05-04T05:05:46.193Z,11.88
2023-05-04T05:08:18.492Z,12.57
2023-05-04T05:10:50.808Z,15.63
2023-05-04T05:13:23.422Z,18.73
2023-05-04T05:15:55.932Z,15.32
2023-05-04T05:18:29.605Z,11.95
2023-05-04T05:21:02.089Z,12.00
2023-05-04T05:23:35.825Z,17.70
2023-05-04T05:26:08.230Z,11.35
2023-05-04T05:28:40.584Z,15.30
2023-05-04T05:31:13.013Z,8.88
2023-05-04T05:33:45.414Z,10.18
2023-05-04T05:36:21.690Z,8.63
2023-05-04T05:38:54.079Z,13.75
2023-05-04T05:41:26.445Z,12.88
2023-05-04T05:43:58.975Z,15.38
2023-05-04T05:46:31.289Z,10.82
2023-05-04T05:49:06.214Z,8.88
2023-05-04T05:51:38.599Z,11.63
2023-05-04T05:54:11.021Z,11.35
2023-05-04T05:56:43.295Z,18.65
2023-05-04T05:59:16.208Z,13.68
2023-05-04T06:01:48.483Z,9.30
2023-05-04T06:04:21.021Z,13.15
2023-05-04T06:06:53.924Z,8.93
2023-05-04T06:09:26.193Z,13.00
2023-05-04T06:11:58.824Z,15.52
2023-05-04T06:14:31.099Z,14.82
2023-05-04T06:17:17.900Z,8.73
2023-05-04T06:19:51.564Z,11.60
2023-05-04T06:22:23.764Z,12.98
2023-05-04T06:25:01.512Z,12.15
2023-05-04T06:27:36.194Z,19.55
2023-05-04T06:30:09.381Z,9.30
2023-05-04T06:32:41.713Z,8.57
2023-05-04T06:35:14.069Z,6.60
2023-05-04T06:37:46.607Z,11.02
2023-05-04T06:40:18.936Z,14.05
2023-05-04T06:42:51.089Z,11.05
2023-05-04T06:45:23.266Z,10.02
2023-05-04T06:47:57.657Z,15.35
2023-05-04T06:50:30.790Z,15.88
2023-05-04T06:53:11.032Z,13.20
2023-05-04T06:55:43.145Z,11.40
2023-05-04T06:58:19.257Z,10.63
2023-05-04T07:00:52.168Z,10.15
2023-05-04T07:03:24.489Z,6.82
2023-05-04T07:05:56.842Z,10.40
2023-05-04T07:08:29.047Z,12.05
2023-05-04T07:11:01.440Z,8.25
2023-05-04T07:13:33.769Z,10.02
2023-05-04T07:19:53.812Z,7.53
2023-05-04T07:23:06.649Z,11.27
2023-05-04T07:27:00.504Z,11.57
2023-05-04T07:30:06.117Z,9.05
2023-05-04T07:33:27.556Z,12.88
2023-05-04T07:42:37.706Z,18.73
2023-05-04T07:48:57.633Z,8.70
2023-05-04T07:51:32.326Z,11.57
2023-05-04T07:54:07.873Z,12.90
2023-05-04T07:56:46.842Z,13.18
2023-05-04T07:59:31.018Z,8.45
2023-05-04T08:02:22.529Z,12.10
2023-05-04T08:05:47.933Z,15.15
2023-05-04T08:08:22.680Z,5.85
2023-05-04T08:11:08.448Z,9.70
2023-05-04T08:20:27.883Z,7.63
2023-05-04T08:23:10.042Z,6.22
2023-05-04T08:25:49.872Z,6.35
2023-05-04T08:28:22.661Z,7.22
2023-05-04T08:30:54.973Z,7.00
2023-05-04T08:33:27.475Z,7.90
2023-05-04T08:36:00.653Z,14.05
2023-05-04T08:38:33.022Z,12.10
2023-05-04T08:41:06.197Z,8.65
2023-05-04T08:43:38.835Z,10.30
2023-05-04T08:46:11.842Z,5.60
2023-05-04T08:48:45.166Z,7.85
2023-05-04T08:51:18.331Z,8.82
2023-05-04T08:53:52.142Z,7.97
2023-05-04T08:56:25.453Z,8.00
2023-05-04T08:59:02.168Z,9.48
2023-05-04T09:01:36.860Z,6.80
2023-05-04T09:04:09.398Z,7.25
2023-05-04T09:06:42.272Z,7.40
2023-05-04T09:09:15.134Z,3.78
2023-05-04T09:11:48.118Z,4.32
2023-05-04T09:14:23.394Z,5.22
2023-05-04T09:16:55.734Z,3.60
2023-05-04T09:19:33.681Z,8.85
2023-05-04T09:22:18.417Z,11.18
2023-05-04T09:24:50.868Z,6.75
2023-05-04T09:27:23.392Z,8.40
2023-05-04T09:29:57.694Z,6.72
2023-05-04T09:32:30.794Z,7.40
2023-05-04T09:35:03.586Z,4.68
2023-05-04T09:37:47.472Z,10.10
2023-05-04T09:40:30.611Z,9.48
2023-05-04T09:43:03.418Z,9.18
2023-05-04T09:45:44.249Z,7.25
2023-05-04T09:48:27.294Z,10.27
2023-05-04T09:51:04.376Z,5.68
2023-05-04T09:53:39.576Z,7.03
2023-05-04T09:56:30.221Z,5.57
2023-05-04T09:59:03.192Z,8.45
2023-05-04T10:01:35.744Z,7.68
2023-05-04T10:04:08.433Z,6.60
2023-05-04T10:06:43.583Z,12.27
2023-05-04T10:09:16.829Z,6.93
2023-05-04T10:11:49.807Z,7.70
2023-05-04T10:14:22.788Z,7.43
2023-05-04T10:17:18.677Z,12.73
2023-05-04T10:20:19.729Z,7.88
2023-05-04T10:23:37.360Z,10.98
2023-05-04T10:26:53.913Z,7.25
2023-05-04T10:29:29.507Z,3.70
2023-05-04T10:32:02.220Z,7.70
2023-05-04T10:34:35.833Z,7.60
2023-05-04T10:37:20.638Z,4.20
2023-05-04T10:39:54.683Z,8.02
2023-05-04T10:42:27.008Z,5.88
2023-05-04T10:44:59.667Z,5.32
2023-05-04T10:47:36.067Z,7.93
2023-05-04T10:50:12.436Z,14.65
2023-05-04T10:52:54.150Z,12.27
2023-05-04T10:55:26.675Z,10.35
2023-05-04T10:57:59.431Z,6.32
2023-05-04T11:01:27.553Z,6.07
2023-05-04T11:04:11.976Z,5.63
2023-05-04T11:15:00.589Z,6.18
2023-05-04T11:17:33.397Z,7.60
2023-05-04T11:20:20.124Z,7.32
2023-05-04T11:22:59.509Z,6.00
2023-05-04T11:25:41.375Z,3.72
2023-05-04T11:28:16.703Z,11.77
2023-05-04T11:30:48.885Z,3.85
2023-05-04T11:33:23.996Z,9.63
2023-05-04T11:36:04.621Z,4.82
2023-05-04T11:39:14.108Z,3.88
2023-05-04T11:41:48.023Z,3.25
2023-05-04T11:44:26.471Z,7.22
2023-05-04T16:15:04.384Z,5.70
2023-05-04T16:18:27.964Z,6.00
2023-05-04T16:25:18.074Z,8.75
2023-05-04T16:28:31.523Z,9.23
2023-05-04T18:32:37.239Z,13.63
2023-05-04T19:23:02.416Z,6.57
2023-05-04T19:40:15.795Z,8.85
2023-05-04T19:55:09.763Z,14.35
2023-05-04T20:28:32.726Z,6.90
2023-05-04T21:07:45.423Z,8.02
2023-05-04T21:10:49.330Z,8.23
2023-05-04T21:14:03.054Z,8.63
2023-05-04T21:19:49.215Z,9.85
2023-05-04T21:59:05.016Z,12.70
2023-05-04T22:15:29.513Z,15.82
2023-05-04T22:22:09.402Z,19.45
2023-05-04T22:28:59.343Z,12.07
2023-05-04T22:31:53.709Z,11.30
2023-05-04T22:37:31.094Z,10.38
2023-05-04T22:40:55.176Z,19.63
2023-05-04T22:44:02.994Z,15.43
2023-05-04T22:55:24.015Z,14.68
2023-05-04T23:01:50.929Z,13.60
2023-05-04T23:19:13.090Z,15.20
2023-05-04T23:22:30.896Z,14.00
2023-05-04T23:40:10.780Z,14.35
2023-05-04T23:55:48.097Z,14.07
